createdAt,value
2018-02-06T00:00:00.263Z,99.90
2018-02-06T00:02:28.673Z,99.90
2018-02-06T00:04:57.086Z,99.90
2018-02-06T00:07:25.826Z,99.90
2018-02-06T00:09:54.217Z,99.90
2018-02-06T00:12:22.838Z,99.90
2018-02-06T00:14:51.275Z,99.90
2018-02-06T00:17:19.715Z,99.90
2018-02-06T00:19:48.115Z,99.90
2018-02-06T00:22:16.370Z,99.90
2018-02-06T00:24:44.757Z,99.90
2018-02-06T00:27:14.220Z,99.90
2018-02-06T00:29:42.892Z,99.90
2018-02-06T00:32:12.050Z,99.90
2018-02-06T00:34:40.614Z,99.90
2018-02-06T00:37:08.998Z,99.90
2018-02-06T00:39:37.386Z,99.90
2018-02-06T00:42:06.822Z,99.90
2018-02-06T00:44:35.478Z,99.90
2018-02-06T00:47:03.833Z,99.90
2018-02-06T00:49:32.209Z,99.90
2018-02-06T00:52:00.915Z,99.90
2018-02-06T00:54:29.615Z,99.90
2018-02-06T00:56:57.814Z,99.90
2018-02-06T00:59:26.481Z,99.90
2018-02-06T01:01:55.145Z,99.90
2018-02-06T01:04:24.571Z,99.90
2018-02-06T01:06:53.777Z,99.90
2018-02-06T01:09:22.261Z,99.90
2018-02-06T01:11:50.653Z,99.90
2018-02-06T01:14:19.287Z,99.90
2018-02-06T01:16:48.783Z,99.90
2018-02-06T01:19:17.165Z,99.90
2018-02-06T01:21:45.557Z,99.90
2018-02-06T01:24:14.222Z,99.90
2018-02-06T01:26:42.808Z,99.90
2018-02-06T01:29:11.214Z,99.90
2018-02-06T01:31:39.874Z,99.90
2018-02-06T01:34:08.262Z,99.90
2018-02-06T01:36:36.830Z,99.90
2018-02-06T01:39:04.558Z,99.90
2018-02-06T01:41:33.270Z,99.90
2018-02-06T01:44:02.788Z,99.90
2018-02-06T01:46:31.462Z,99.90
2018-02-06T01:49:00.890Z,99.90
2018-02-06T01:51:29.284Z,99.90
2018-02-06T01:53:58.721Z,99.90
2018-02-06T01:56:27.386Z,99.90
2018-02-06T01:58:56.103Z,99.90
2018-02-06T02:01:24.765Z,99.90
2018-02-06T02:03:53.438Z,99.90
2018-02-06T02:06:22.293Z,99.90
2018-02-06T02:08:51.481Z,99.90
2018-02-06T02:11:20.914Z,99.90
2018-02-06T02:13:49.569Z,99.90
2018-02-06T02:16:17.954Z,99.90
2018-02-06T02:18:46.423Z,99.90
2018-02-06T02:21:15.749Z,99.90
2018-02-06T02:23:44.409Z,99.90
2018-02-06T02:26:12.793Z,99.90
2018-02-06T02:28:41.185Z,99.90
2018-02-06T02:31:09.572Z,99.90
2018-02-06T02:33:38.248Z,99.90
2018-02-06T02:36:07.049Z,99.90
2018-02-06T02:38:35.442Z,99.90
2018-02-06T02:41:03.846Z,99.90
2018-02-06T04:40:01.062Z,99.90
2018-02-06T04:42:29.728Z,99.90
2018-02-06T04:44:57.929Z,99.90
2018-02-06T04:47:26.321Z,99.90
2018-02-06T04:49:54.802Z,99.90
2018-02-06T04:52:23.182Z,99.90
2018-02-06T04:54:52.572Z,99.90
2018-02-06T04:57:21.242Z,99.90
2018-02-06T04:59:49.644Z,99.90
2018-02-06T05:02:18.302Z,99.90
2018-02-06T05:04:46.935Z,99.90
2018-02-06T05:07:15.594Z,99.90
2018-02-06T05:09:44.266Z,99.90
2018-02-06T05:12:12.674Z,99.90
2018-02-06T05:14:41.343Z,99.90
2018-02-06T05:17:09.921Z,99.90
2018-02-06T05:19:38.309Z,99.90
2018-02-06T05:22:06.865Z,99.90
2018-02-06T05:24:35.259Z,99.90
2018-02-06T05:27:03.573Z,99.90
2018-02-06T05:29:32.129Z,99.90
2018-02-06T05:32:00.779Z,99.90
2018-02-06T05:34:29.156Z,99.90
2018-02-06T05:36:57.537Z,99.90
2018-02-06T05:39:26.321Z,99.90
2018-02-06T05:41:55.752Z,99.90
2018-02-06T05:44:24.416Z,99.90
2018-02-06T05:46:53.077Z,99.90
2018-02-06T05:49:21.784Z,99.90
2018-02-06T05:51:50.450Z,99.90
2018-02-06T05:54:19.881Z,99.90
2018-02-06T05:56:48.328Z,99.90
2018-02-06T05:59:16.748Z,99.90
2018-02-06T06:01:45.495Z,99.90
2018-02-06T06:04:14.938Z,99.90
2018-02-06T06:06:43.606Z,99.90
2018-02-06T06:09:12.266Z,99.90
2018-02-06T06:11:40.654Z,99.90
2018-02-06T06:14:09.034Z,99.90
2018-02-06T06:16:37.842Z,99.90
2018-02-06T06:19:06.550Z,99.90
2018-02-06T06:21:34.946Z,99.90
2018-02-06T06:24:03.150Z,99.90
2018-02-06T06:26:31.697Z,99.90
2018-02-06T06:29:00.310Z,99.90
2018-02-06T06:31:29.741Z,99.90
2018-02-06T06:33:58.244Z,99.90
2018-02-06T06:36:26.849Z,99.90
2018-02-06T06:38:55.453Z,99.90
2018-02-06T06:41:23.941Z,99.90
2018-02-06T06:43:52.345Z,99.90
2018-02-06T06:46:20.964Z,99.90
2018-02-06T06:48:50.025Z,99.90
2018-02-06T06:51:18.396Z,99.90
2018-02-06T06:53:47.063Z,99.90
2018-02-06T06:56:15.687Z,99.90
2018-02-06T06:58:44.964Z,99.90
2018-02-06T07:01:14.239Z,99.90
2018-02-06T07:03:43.691Z,99.90
2018-02-06T07:06:13.993Z,99.90
2018-02-06T07:08:42.385Z,99.90
2018-02-06T07:11:10.793Z,99.90
2018-02-06T07:13:39.277Z,99.90
2018-02-06T07:16:07.750Z,99.90
2018-02-06T07:18:36.177Z,99.90
2018-02-06T07:21:04.768Z,99.90
2018-02-06T07:23:33.350Z,99.90
2018-02-06T07:26:01.738Z,99.90
2018-02-06T07:28:30.136Z,99.90
2018-02-06T07:30:58.798Z,99.90
2018-02-06T07:33:27.462Z,99.90
2018-02-06T07:35:56.105Z,99.90
2018-02-06T07:38:25.259Z,99.90
2018-02-06T07:40:53.645Z,99.90
2018-02-06T07:43:22.034Z,99.90
2018-02-06T07:45:51.194Z,99.90
2018-02-06T07:48:19.402Z,99.90
2018-02-06T07:50:48.070Z,99.90
2018-02-06T07:53:16.725Z,99.90
2018-02-06T07:55:45.326Z,99.90
2018-02-06T07:58:13.981Z,99.90
2018-02-06T08:00:42.373Z,99.90
2018-02-06T08:03:10.873Z,99.90
2018-02-06T08:05:39.551Z,99.90
2018-02-06T08:08:07.545Z,99.90
2018-02-06T08:10:35.935Z,99.90
2018-02-06T08:13:04.555Z,99.90
2018-02-06T08:15:33.098Z,99.90
2018-02-06T08:18:01.791Z,99.90
2018-02-06T08:20:31.438Z,99.90
2018-02-06T08:23:00.476Z,99.90
2018-02-06T08:25:28.865Z,99.90
2018-02-06T08:27:57.266Z,99.90
2018-02-06T08:30:25.694Z,99.90
2018-02-06T08:32:54.454Z,99.90
2018-02-06T08:35:22.994Z,99.90
2018-02-06T08:37:51.654Z,99.90
2018-02-06T08:40:20.154Z,99.90
2018-02-06T08:42:48.538Z,99.90
2018-02-06T08:45:16.926Z,99.90
2018-02-06T08:47:46.078Z,99.90
2018-02-06T08:50:14.455Z,99.90
2018-02-06T08:52:43.122Z,99.90
2018-02-06T08:55:12.349Z,99.90
2018-02-06T08:57:41.010Z,99.90
2018-02-06T09:00:09.473Z,99.90
2018-02-06T09:02:38.929Z,99.90
2018-02-06T09:05:07.577Z,99.90
2018-02-06T09:07:36.117Z,99.90
2018-02-06T09:10:04.799Z,99.90
2018-02-06T09:12:33.377Z,99.90
2018-02-06T09:15:02.267Z,99.90
2018-02-06T09:17:30.990Z,99.90
2018-02-06T09:19:59.469Z,99.90
2018-02-06T09:22:27.867Z,99.90
2018-02-06T09:24:56.481Z,99.90
2018-02-06T09:27:24.865Z,99.90
2018-02-06T09:29:53.403Z,99.90
2018-02-06T09:32:22.287Z,99.90
2018-02-06T09:34:51.198Z,99.90
2018-02-06T09:37:19.587Z,99.90
2018-02-06T09:39:48.084Z,99.90
2018-02-06T09:42:16.734Z,99.90
2018-02-06T09:44:45.126Z,99.90
2018-02-06T09:47:13.714Z,99.90
2018-02-06T09:49:42.225Z,99.90
2018-02-06T09:52:10.880Z,99.90
2018-02-06T09:54:39.718Z,99.90
2018-02-06T09:57:09.146Z,99.90
2018-02-06T09:59:38.871Z,99.90
2018-02-06T10:02:07.530Z,99.90
2018-02-06T10:04:36.958Z,99.90
2018-02-06T10:07:05.507Z,99.90
2018-02-06T10:09:33.898Z,99.90
2018-02-06T10:12:02.562Z,99.90
2018-02-06T10:14:31.402Z,99.90
2018-02-06T10:16:59.996Z,99.90
2018-02-06T10:19:28.737Z,96.70
2018-02-06T10:21:58.146Z,97.00
2018-02-06T10:24:26.854Z,96.90
2018-02-06T10:26:55.677Z,98.30
2018-02-06T10:29:24.077Z,99.00
2018-02-06T10:31:52.824Z,95.90
2018-02-06T10:34:21.269Z,96.30
2018-02-06T10:36:50.573Z,92.90
2018-02-06T10:39:19.180Z,92.90
2018-02-06T10:41:47.736Z,92.90
2018-02-06T10:44:16.916Z,96.80
2018-02-06T10:46:45.631Z,96.80
2018-02-06T10:49:14.157Z,97.90
2018-02-06T10:51:43.104Z,99.90
2018-02-06T10:54:11.756Z,97.70
2018-02-06T10:56:41.180Z,95.50
2018-02-06T10:59:09.832Z,95.50
2018-02-06T11:01:39.250Z,97.20
2018-02-06T11:04:07.894Z,97.20
2018-02-06T11:06:36.563Z,99.90
2018-02-06T11:09:04.388Z,99.90
2018-02-06T11:11:33.684Z,99.90
2018-02-06T11:14:02.272Z,99.90
2018-02-06T11:16:30.658Z,99.90
2018-02-06T11:18:59.036Z,99.90
2018-02-06T11:21:27.421Z,99.90
2018-02-06T11:23:56.101Z,99.90
2018-02-06T11:26:25.691Z,99.90
2018-02-06T11:28:54.256Z,99.90
2018-02-06T11:31:22.654Z,99.90
2018-02-06T11:33:52.041Z,99.90
2018-02-06T11:36:20.468Z,99.90
2018-02-06T11:38:48.869Z,99.90
2018-02-06T11:41:18.001Z,99.90
2018-02-06T11:43:46.671Z,99.90
2018-02-06T11:46:15.644Z,99.90
2018-02-06T11:48:44.097Z,99.90
2018-02-06T11:51:14.037Z,99.90
2018-02-06T11:53:42.548Z,99.90
2018-02-06T11:56:11.937Z,99.90
2018-02-06T11:58:40.361Z,99.90
2018-02-06T12:01:08.541Z,99.90
2018-02-06T12:03:37.889Z,99.90
2018-02-06T12:06:06.273Z,99.90
2018-02-06T12:08:34.865Z,99.90
2018-02-06T12:11:03.236Z,99.90
2018-02-06T12:13:31.621Z,99.90
2018-02-06T12:16:00.309Z,99.90
2018-02-06T12:18:28.929Z,99.90
2018-02-06T12:20:58.084Z,99.90
2018-02-06T12:23:26.464Z,99.90
2018-02-06T12:25:54.966Z,99.90
2018-02-06T12:28:23.341Z,99.90
2018-02-06T12:30:51.994Z,99.90
2018-02-06T12:33:20.504Z,99.90
2018-02-06T12:35:48.904Z,99.90
2018-02-06T12:38:17.089Z,99.90
2018-02-06T12:40:45.865Z,99.90
2018-02-06T12:43:14.741Z,99.90
2018-02-06T12:45:43.127Z,99.90
2018-02-06T12:48:11.513Z,99.90
2018-02-06T12:50:40.401Z,99.90
2018-02-06T12:53:08.769Z,99.90
2018-02-06T12:55:37.153Z,99.90
2018-02-06T12:58:05.669Z,99.90
2018-02-06T13:00:34.059Z,99.90
2018-02-06T13:03:04.093Z,99.90
2018-02-06T13:05:33.296Z,99.90
2018-02-06T13:08:01.676Z,99.90
2018-02-06T13:10:30.140Z,99.90
2018-02-06T13:12:58.507Z,99.90
2018-02-06T13:15:27.545Z,99.90
2018-02-06T13:17:55.960Z,99.90
2018-02-06T13:20:24.608Z,99.90
2018-02-06T13:22:52.986Z,99.90
2018-02-06T13:25:21.488Z,99.90
2018-02-06T13:27:50.112Z,99.90
2018-02-06T13:30:18.891Z,99.90
2018-02-06T13:32:48.304Z,99.90
2018-02-06T13:35:16.969Z,99.90
2018-02-06T13:37:45.414Z,99.90
2018-02-06T13:40:14.093Z,99.90
2018-02-06T13:42:43.363Z,99.90
2018-02-06T13:45:11.761Z,99.90
2018-02-06T13:47:40.481Z,99.90
2018-02-06T13:50:09.209Z,99.90
2018-02-06T13:52:37.893Z,99.90
2018-02-06T13:55:06.074Z,99.90
2018-02-06T13:57:40.591Z,99.90
2018-02-06T14:00:08.631Z,99.90
2018-02-06T14:02:37.293Z,99.90
2018-02-06T14:05:06.442Z,99.90
2018-02-06T14:07:35.658Z,99.90
2018-02-06T14:10:03.506Z,99.90
2018-02-06T14:12:31.995Z,99.90
2018-02-06T14:15:00.706Z,99.90
2018-02-06T14:17:29.365Z,99.90
2018-02-06T14:19:57.753Z,99.90
2018-02-06T14:22:27.442Z,99.90
2018-02-06T14:24:56.101Z,99.90
2018-02-06T14:27:24.513Z,99.90
2018-02-06T14:29:53.174Z,99.90
2018-02-06T14:32:21.553Z,99.90
2018-02-06T14:34:50.243Z,99.90
2018-02-06T14:37:22.281Z,99.90
2018-02-06T14:39:50.675Z,99.90
2018-02-06T14:42:19.297Z,99.90
2018-02-06T14:44:48.949Z,99.90
2018-02-06T14:47:17.607Z,99.90
2018-02-06T14:49:46.013Z,99.90
2018-02-06T14:52:14.671Z,99.90
2018-02-06T14:54:43.305Z,99.90
2018-02-06T14:57:11.971Z,99.90
2018-02-06T14:59:40.631Z,99.90
2018-02-06T15:02:09.487Z,99.90
2018-02-06T15:04:38.034Z,99.90
2018-02-06T15:07:06.411Z,99.90
2018-02-06T15:09:34.782Z,99.90
2018-02-06T15:12:03.168Z,99.90
2018-02-06T15:14:32.596Z,99.90
2018-02-06T15:17:01.104Z,99.90
2018-02-06T15:19:29.915Z,99.90
2018-02-06T15:21:58.632Z,99.90
2018-02-06T15:24:27.218Z,99.90
2018-02-06T15:26:55.610Z,99.90
2018-02-06T15:29:24.198Z,99.90
2018-02-06T15:31:52.574Z,99.90
2018-02-06T15:34:20.966Z,99.90
2018-02-06T15:36:49.373Z,99.90
2018-02-06T15:39:17.821Z,99.90
2018-02-06T15:41:46.474Z,99.90
2018-02-06T15:44:14.852Z,99.90
2018-02-06T15:46:43.233Z,99.90
2018-02-06T15:49:12.234Z,99.90
2018-02-06T15:51:40.793Z,99.90
2018-02-06T15:54:09.310Z,99.90
2018-02-06T15:56:37.957Z,99.90
2018-02-06T15:59:06.529Z,99.90
2018-02-06T16:01:34.965Z,99.90
2018-02-06T16:04:03.565Z,99.90
2018-02-06T16:06:32.711Z,99.90
2018-02-06T16:09:01.081Z,99.90
2018-02-06T16:11:29.469Z,99.90
2018-02-06T16:13:58.897Z,99.90
2018-02-06T16:16:27.568Z,99.90
2018-02-06T16:18:55.973Z,99.90
2018-02-06T16:21:24.559Z,99.90
2018-02-06T16:23:53.326Z,99.90
2018-02-06T16:26:22.178Z,99.90
2018-02-06T16:28:51.109Z,99.90
2018-02-06T16:31:20.056Z,99.90
2018-02-06T16:33:49.151Z,99.90
2018-02-06T16:36:18.567Z,99.90
2018-02-06T16:38:46.954Z,99.90
2018-02-06T16:41:15.334Z,99.90
2018-02-06T16:43:43.722Z,99.90
2018-02-06T16:46:11.461Z,99.90
2018-02-06T16:48:40.136Z,99.90
2018-02-06T16:51:08.514Z,99.90
2018-02-06T16:53:36.902Z,99.90
2018-02-06T16:56:05.090Z,99.90
2018-02-06T16:58:33.749Z,99.90
2018-02-06T17:01:02.166Z,99.90
2018-02-06T17:03:30.837Z,99.90
2018-02-06T17:05:59.232Z,99.90
2018-02-06T17:08:27.617Z,99.90
2018-02-06T17:10:56.043Z,99.90
2018-02-06T17:13:24.765Z,99.90
2018-02-06T17:15:53.169Z,99.90
2018-02-06T17:18:21.595Z,99.90
2018-02-06T17:20:50.036Z,99.90
2018-02-06T17:23:18.706Z,99.90
2018-02-06T17:25:47.367Z,99.90
2018-02-06T17:28:15.816Z,99.90
2018-02-06T17:30:44.190Z,99.90
2018-02-06T17:33:12.389Z,99.90
2018-02-06T17:35:40.776Z,99.90
2018-02-06T17:38:09.158Z,99.90
2018-02-06T17:40:37.819Z,99.90
2018-02-06T17:43:06.210Z,99.90
2018-02-06T17:45:34.871Z,99.90
2018-02-06T17:48:03.518Z,99.90
2018-02-06T17:50:32.782Z,99.90
2018-02-06T17:53:02.730Z,99.90
2018-02-06T17:55:31.397Z,99.90
2018-02-06T17:58:00.290Z,99.90
2018-02-06T18:00:28.953Z,99.90
2018-02-06T18:02:57.341Z,99.90
2018-02-06T18:05:25.901Z,99.90
2018-02-06T18:07:54.561Z,99.90
2018-02-06T18:10:23.221Z,99.90
2018-02-06T18:12:52.385Z,99.90
2018-02-06T18:15:20.941Z,99.90
2018-02-06T18:17:50.357Z,99.90
2018-02-06T18:20:19.029Z,99.90
2018-02-06T18:22:47.593Z,99.90
2018-02-06T18:25:16.261Z,99.90
2018-02-06T18:27:44.933Z,99.90
2018-02-06T18:30:13.620Z,99.90
2018-02-06T18:32:42.123Z,99.90
2018-02-06T18:35:10.453Z,99.90
2018-02-06T18:37:39.120Z,99.90
2018-02-06T18:40:07.797Z,99.90
2018-02-06T18:42:36.464Z,99.90
2018-02-06T18:45:05.370Z,99.90
2018-02-06T18:47:33.858Z,99.90
2018-02-06T18:50:02.562Z,99.90
2018-02-06T18:52:31.862Z,99.90
2018-02-06T18:55:00.250Z,99.90
2018-02-06T18:57:28.910Z,99.90
2018-02-06T18:59:57.582Z,99.90
2018-02-06T19:02:26.020Z,99.90
2018-02-06T19:04:54.746Z,99.90
2018-02-06T19:07:23.309Z,99.90
2018-02-06T19:09:51.530Z,99.90
2018-02-06T19:12:19.955Z,99.90
2018-02-06T19:14:49.309Z,99.90
2018-02-06T19:17:17.748Z,99.90
2018-02-06T19:19:46.965Z,99.90
2018-02-06T19:22:15.731Z,99.90
2018-02-06T19:24:44.559Z,99.90
2018-02-06T19:27:13.141Z,99.90
2018-02-06T19:29:41.823Z,99.90
2018-02-06T19:32:10.143Z,99.90
2018-02-06T19:34:38.791Z,99.90
2018-02-06T19:37:07.583Z,99.90
2018-02-06T19:39:36.161Z,99.90
2018-02-06T19:42:04.828Z,99.90
2018-02-06T19:44:33.486Z,99.90
2018-02-06T19:47:02.139Z,99.90
2018-02-06T19:49:30.983Z,99.90
2018-02-06T19:51:59.364Z,99.90
2018-02-06T19:54:27.745Z,99.90
2018-02-06T19:56:56.838Z,99.90
2018-02-06T19:59:25.289Z,99.90
2018-02-06T20:01:54.097Z,99.90
2018-02-06T20:04:22.638Z,99.90
2018-02-06T20:06:51.098Z,99.90
2018-02-06T20:09:20.472Z,99.90
2018-02-06T20:11:49.313Z,99.90
2018-02-06T20:14:17.709Z,99.90
2018-02-06T20:16:46.094Z,99.90
2018-02-06T20:19:14.590Z,99.90
2018-02-06T20:21:43.270Z,99.90
2018-02-06T20:24:11.657Z,99.90
2018-02-06T20:26:40.043Z,99.90
2018-02-06T20:29:08.437Z,99.90
2018-02-06T20:31:36.633Z,99.90
2018-02-06T20:34:05.049Z,99.90
2018-02-06T20:36:34.373Z,99.90
2018-02-06T20:39:02.915Z,99.90
2018-02-06T20:41:32.119Z,99.90
2018-02-06T20:44:01.596Z,99.90
2018-02-06T20:46:31.049Z,99.90
2018-02-06T20:48:59.437Z,99.90
2018-02-06T20:51:28.146Z,99.90
2018-02-06T20:53:56.804Z,99.90
2018-02-06T20:56:26.225Z,99.90
2018-02-06T20:58:54.623Z,99.90
2018-02-06T21:01:23.768Z,99.90
2018-02-06T21:03:52.176Z,99.90
2018-02-06T21:06:21.057Z,99.90
2018-02-06T21:08:49.728Z,99.90
2018-02-06T21:11:18.172Z,99.90
2018-02-06T21:13:46.714Z,99.90
2018-02-06T21:16:15.718Z,99.90
2018-02-06T21:18:44.859Z,99.90
2018-02-06T21:21:13.314Z,99.90
2018-02-06T21:23:41.518Z,99.90
2018-02-06T21:26:09.894Z,99.90
2018-02-06T21:28:39.202Z,99.90
2018-02-06T21:31:07.582Z,99.90
2018-02-06T21:33:36.246Z,99.90
2018-02-06T21:36:05.476Z,99.90
2018-02-06T21:38:33.870Z,99.90
2018-02-06T21:41:02.254Z,99.90
2018-02-06T21:43:31.430Z,99.90
2018-02-06T21:45:59.810Z,99.90
2018-02-06T21:48:28.189Z,99.90
2018-02-06T21:50:56.849Z,99.90
2018-02-06T21:53:25.437Z,99.90
2018-02-06T21:55:54.837Z,99.90
2018-02-06T21:58:23.245Z,99.90
2018-02-06T22:00:52.023Z,99.90
2018-02-06T22:03:20.711Z,99.90
2018-02-06T22:05:49.857Z,99.90
2018-02-06T22:08:18.229Z,99.90
2018-02-06T22:10:46.623Z,99.90
2018-02-06T22:13:15.027Z,99.90
2018-02-06T22:15:43.409Z,99.90
2018-02-06T22:18:11.798Z,99.90
2018-02-06T22:20:40.190Z,99.90
2018-02-06T22:23:09.346Z,99.90
2018-02-06T22:25:37.742Z,99.90
2018-02-06T22:28:06.282Z,99.90
2018-02-06T22:30:34.705Z,99.90
2018-02-06T22:33:03.126Z,99.90
2018-02-06T22:35:31.682Z,99.90
2018-02-06T22:38:00.830Z,99.90
2018-02-06T22:40:29.326Z,99.90
2018-02-06T22:42:57.985Z,99.90
2018-02-06T22:45:26.505Z,99.90
2018-02-06T22:47:55.179Z,99.90
2018-02-06T22:50:23.562Z,99.90
2018-02-06T22:52:52.245Z,99.90
2018-02-06T22:55:20.910Z,99.90
2018-02-06T22:57:49.533Z,99.90
2018-02-06T23:00:22.922Z,99.90
2018-02-06T23:02:51.685Z,99.90
2018-02-06T23:05:20.390Z,99.90
2018-02-06T23:07:48.777Z,99.90
2018-02-06T23:10:17.438Z,99.90
2018-02-06T23:12:45.825Z,99.90
2018-02-06T23:15:14.473Z,99.90
2018-02-06T23:17:43.137Z,99.90
2018-02-06T23:20:11.517Z,99.90
2018-02-06T23:22:40.237Z,99.90
2018-02-06T23:25:08.633Z,99.90
2018-02-06T23:27:37.010Z,99.90
2018-02-06T23:30:05.681Z,99.90
2018-02-06T23:32:34.269Z,99.90
2018-02-06T23:35:02.714Z,99.90
2018-02-06T23:37:31.106Z,99.90
2018-02-06T23:39:59.486Z,99.90
2018-02-06T23:42:27.870Z,99.90
2018-02-06T23:44:56.306Z,99.90
2018-02-06T23:47:25.262Z,99.90
2018-02-06T23:49:53.656Z,99.90
2018-02-06T23:52:22.038Z,99.90
2018-02-06T23:54:51.190Z,99.90
2018-02-06T23:57:20.200Z,99.90
2018-02-06T23:59:48.593Z,99.90
